sensor_id;sensor_type;location;lat;lon;timestamp;pressure;altitude;pressure_sealevel;temperature;humidity
29371;BME280;16357;52.188;7.838;2023-05-07T00:01:17;100981.31;;;17.54;53.68
29371;BME280;16357;52.188;7.838;2023-05-07T00:03:45;100974.19;;;17.53;53.60
29371;BME280;16357;52.188;7.838;2023-05-07T00:06:12;100975.22;;;17.52;53.62
29371;BME280;16357;52.188;7.838;2023-05-07T00:08:39;100974.59;;;17.50;53.84
29371;BME280;16357;52.188;7.838;2023-05-07T00:11:05;100972.09;;;17.49;53.60
29371;BME280;16357;52.188;7.838;2023-05-07T00:13:32;100969.78;;;17.46;53.61
29371;BME280;16357;52.188;7.838;2023-05-07T00:16:02;100976.22;;;17.45;53.49
29371;BME280;16357;52.188;7.838;2023-05-07T00:18:29;100976.59;;;17.42;53.60
29371;BME280;16357;52.188;7.838;2023-05-07T00:20:56;100973.25;;;17.40;53.86
29371;BME280;16357;52.188;7.838;2023-05-07T00:23:22;100978.22;;;17.36;53.75
29371;BME280;16357;52.188;7.838;2023-05-07T00:25:49;100972.38;;;17.32;53.82
29371;BME280;16357;52.188;7.838;2023-05-07T00:28:15;100979.22;;;17.28;53.90
29371;BME280;16357;52.188;7.838;2023-05-07T00:30:42;100979.59;;;17.25;53.72
29371;BME280;16357;52.188;7.838;2023-05-07T00:33:08;100975.78;;;17.20;53.71
29371;BME280;16357;52.188;7.838;2023-05-07T00:35:35;100978.03;;;17.16;53.97
29371;BME280;16357;52.188;7.838;2023-05-07T00:38:01;100979.47;;;17.12;54.44
29371;BME280;16357;52.188;7.838;2023-05-07T00:40:28;100988.84;;;17.09;54.24
29371;BME280;16357;52.188;7.838;2023-05-07T00:42:54;100991.72;;;17.08;54.32
29371;BME280;16357;52.188;7.838;2023-05-07T00:45:28;100992.56;;;17.08;54.17
29371;BME280;16357;52.188;7.838;2023-05-07T00:47:57;100997.16;;;17.08;54.16
29371;BME280;16357;52.188;7.838;2023-05-07T00:50:25;100980.22;;;17.06;54.17
29371;BME280;16357;52.188;7.838;2023-05-07T00:52:53;100983.31;;;17.03;54.37
29371;BME280;16357;52.188;7.838;2023-05-07T00:55:19;100982.88;;;16.99;54.30
29371;BME280;16357;52.188;7.838;2023-05-07T00:57:46;100977.19;;;16.94;54.35
29371;BME280;16357;52.188;7.838;2023-05-07T01:00:13;100987.78;;;16.89;54.33
29371;BME280;16357;52.188;7.838;2023-05-07T01:02:40;100993.09;;;16.82;54.42
29371;BME280;16357;52.188;7.838;2023-05-07T01:05:09;101003.84;;;16.76;54.62
29371;BME280;16357;52.188;7.838;2023-05-07T01:07:40;100999.00;;;16.71;54.29
29371;BME280;16357;52.188;7.838;2023-05-07T01:10:07;100998.94;;;16.64;54.93
29371;BME280;16357;52.188;7.838;2023-05-07T01:12:36;100994.91;;;16.60;55.04
29371;BME280;16357;52.188;7.838;2023-05-07T01:15:04;101000.72;;;16.57;55.21
29371;BME280;16357;52.188;7.838;2023-05-07T01:17:36;100996.53;;;16.55;54.94
29371;BME280;16357;52.188;7.838;2023-05-07T01:20:04;100989.59;;;16.52;55.10
29371;BME280;16357;52.188;7.838;2023-05-07T01:22:33;100987.94;;;16.51;55.35
29371;BME280;16357;52.188;7.838;2023-05-07T01:25:00;100983.53;;;16.50;55.24
29371;BME280;16357;52.188;7.838;2023-05-07T01:27:27;100972.69;;;16.50;55.30
29371;BME280;16357;52.188;7.838;2023-05-07T01:29:54;100988.50;;;16.46;55.39
29371;BME280;16357;52.188;7.838;2023-05-07T01:32:28;100987.00;;;16.44;54.80
29371;BME280;16357;52.188;7.838;2023-05-07T01:34:55;100989.44;;;16.39;55.23
29371;BME280;16357;52.188;7.838;2023-05-07T01:37:24;100987.94;;;16.36;55.22
29371;BME280;16357;52.188;7.838;2023-05-07T01:39:52;100979.38;;;16.33;55.51
29371;BME280;16357;52.188;7.838;2023-05-07T01:42:19;100980.78;;;16.29;55.49
29371;BME280;16357;52.188;7.838;2023-05-07T01:44:46;100985.72;;;16.25;55.72
29371;BME280;16357;52.188;7.838;2023-05-07T01:47:13;100980.69;;;16.22;55.31
29371;BME280;16357;52.188;7.838;2023-05-07T01:49:41;100978.16;;;16.20;55.44
29371;BME280;16357;52.188;7.838;2023-05-07T01:52:10;100978.53;;;16.17;55.26
29371;BME280;16357;52.188;7.838;2023-05-07T01:54:36;100979.75;;;16.15;55.33
29371;BME280;16357;52.188;7.838;2023-05-07T01:57:03;100975.72;;;16.11;55.61
29371;BME280;16357;52.188;7.838;2023-05-07T01:59:30;100983.00;;;16.10;55.63
29371;BME280;16357;52.188;7.838;2023-05-07T02:01:56;100983.41;;;16.07;55.71
29371;BME280;16357;52.188;7.838;2023-05-07T02:04:22;100987.97;;;16.07;55.79
29371;BME280;16357;52.188;7.838;2023-05-07T02:06:49;100982.94;;;16.04;55.53
29371;BME280;16357;52.188;7.838;2023-05-07T02:09:16;100983.28;;;16.00;55.93
29371;BME280;16357;52.188;7.838;2023-05-07T02:11:44;100986.19;;;15.99;55.95
29371;BME280;16357;52.188;7.838;2023-05-07T02:14:10;100983.88;;;15.96;55.93
29371;BME280;16357;52.188;7.838;2023-05-07T02:16:37;100981.50;;;15.93;55.82
29371;BME280;16357;52.188;7.838;2023-05-07T02:19:03;100986.47;;;15.89;56.01
29371;BME280;16357;52.188;7.838;2023-05-07T02:21:30;100977.06;;;15.85;55.77
29371;BME280;16357;52.188;7.838;2023-05-07T02:23:56;100988.22;;;15.82;55.74
29371;BME280;16357;52.188;7.838;2023-05-07T02:26:23;100989.63;;;15.78;56.19
29371;BME280;16357;52.188;7.838;2023-05-07T02:28:49;100990.16;;;15.73;56.18
29371;BME280;16357;52.188;7.838;2023-05-07T02:31:15;100991.59;;;15.69;56.27
29371;BME280;16357;52.188;7.838;2023-05-07T02:33:42;100988.19;;;15.67;56.19
29371;BME280;16357;52.188;7.838;2023-05-07T02:36:09;100992.09;;;15.65;56.48
29371;BME280;16357;52.188;7.838;2023-05-07T02:38:36;100986.84;;;15.63;56.43
29371;BME280;16357;52.188;7.838;2023-05-07T02:41:03;100996.00;;;15.62;56.44
29371;BME280;16357;52.188;7.838;2023-05-07T02:43:29;100990.75;;;15.61;56.34
29371;BME280;16357;52.188;7.838;2023-05-07T02:46:02;100997.88;;;15.62;56.37
29371;BME280;16357;52.188;7.838;2023-05-07T02:48:29;100997.38;;;15.58;56.53
29371;BME280;16357;52.188;7.838;2023-05-07T02:50:55;101001.28;;;15.55;56.51
29371;BME280;16357;52.188;7.838;2023-05-07T02:53:22;101000.81;;;15.52;56.58
29371;BME280;16357;52.188;7.838;2023-05-07T02:55:48;101001.84;;;15.51;56.94
29371;BME280;16357;52.188;7.838;2023-05-07T02:58:15;101002.03;;;15.49;56.81
29371;BME280;16357;52.188;7.838;2023-05-07T03:00:41;100999.50;;;15.48;56.63
29371;BME280;16357;52.188;7.838;2023-05-07T03:03:08;100997.81;;;15.47;56.66
29371;BME280;16357;52.188;7.838;2023-05-07T03:05:34;100998.00;;;15.45;56.68
29371;BME280;16357;52.188;7.838;2023-05-07T03:08:01;101003.59;;;15.44;56.95
29371;BME280;16357;52.188;7.838;2023-05-07T03:10:27;100998.56;;;15.41;56.93
29371;BME280;16357;52.188;7.838;2023-05-07T03:12:54;100991.66;;;15.38;56.88
29371;BME280;16357;52.188;7.838;2023-05-07T03:15:20;100987.63;;;15.34;57.05
29371;BME280;16357;52.188;7.838;2023-05-07T03:17:48;100987.63;;;15.34;57.22
29371;BME280;16357;52.188;7.838;2023-05-07T03:20:14;100988.81;;;15.31;57.18
29371;BME280;16357;52.188;7.838;2023-05-07T03:22:41;100985.44;;;15.29;57.13
29371;BME280;16357;52.188;7.838;2023-05-07T03:25:08;100981.91;;;15.29;57.11
29371;BME280;16357;52.188;7.838;2023-05-07T03:27:35;100983.94;;;15.27;57.10
29371;BME280;16357;52.188;7.838;2023-05-07T03:30:02;100987.84;;;15.24;57.33
29371;BME280;16357;52.188;7.838;2023-05-07T03:32:29;100984.50;;;15.22;57.12
29371;BME280;16357;52.188;7.838;2023-05-07T03:34:55;100986.72;;;15.19;57.27
29371;BME280;16357;52.188;7.838;2023-05-07T03:37:22;100979.81;;;15.16;57.45
29371;BME280;16357;52.188;7.838;2023-05-07T03:39:48;100985.59;;;15.13;57.37
29371;BME280;16357;52.188;7.838;2023-05-07T03:42:14;100986.97;;;15.09;57.45
29371;BME280;16357;52.188;7.838;2023-05-07T03:44:41;100989.38;;;15.04;57.24
29371;BME280;16357;52.188;7.838;2023-05-07T03:47:07;100992.41;;;15.01;57.65
29371;BME280;16357;52.188;7.838;2023-05-07T03:49:34;100989.06;;;14.99;57.86
29371;BME280;16357;52.188;7.838;2023-05-07T03:52:01;100990.06;;;14.98;57.82
29371;BME280;16357;52.188;7.838;2023-05-07T03:54:27;101001.09;;;14.96;57.81
29371;BME280;16357;52.188;7.838;2023-05-07T03:56:53;100994.84;;;14.96;57.93
29371;BME280;16357;52.188;7.838;2023-05-07T03:59:20;100993.16;;;14.95;57.91
29371;BME280;16357;52.188;7.838;2023-05-07T04:01:46;100993.34;;;14.93;57.89
29371;BME280;16357;52.188;7.838;2023-05-07T04:04:13;100999.75;;;14.92;58.13
29371;BME280;16357;52.188;7.838;2023-05-07T04:06:40;101004.31;;;14.91;58.23
29371;BME280;16357;52.188;7.838;2023-05-07T04:09:07;101003.47;;;14.91;58.30
29371;BME280;16357;52.188;7.838;2023-05-07T04:11:35;101009.53;;;14.93;58.12
29371;BME280;16357;52.188;7.838;2023-05-07T04:14:02;101014.75;;;14.95;58.18
29371;BME280;16357;52.188;7.838;2023-05-07T04:16:28;101022.69;;;14.96;58.23
29371;BME280;16357;52.188;7.838;2023-05-07T04:18:55;101018.97;;;14.97;58.19
29371;BME280;16357;52.188;7.838;2023-05-07T04:21:21;101018.13;;;14.97;58.08
29371;BME280;16357;52.188;7.838;2023-05-07T04:23:48;101026.06;;;14.98;58.13
29371;BME280;16357;52.188;7.838;2023-05-07T04:26:15;101029.59;;;14.99;58.13
29371;BME280;16357;52.188;7.838;2023-05-07T04:28:42;101024.84;;;15.01;58.21
29371;BME280;16357;52.188;7.838;2023-05-07T04:31:08;101025.72;;;15.01;58.22
29371;BME280;16357;52.188;7.838;2023-05-07T04:33:35;101017.59;;;15.01;58.14
29371;BME280;16357;52.188;7.838;2023-05-07T04:36:02;101013.03;;;15.02;57.60
29371;BME280;16357;52.188;7.838;2023-05-07T04:38:30;101014.69;;;15.03;57.99
29371;BME280;16357;52.188;7.838;2023-05-07T04:41:02;101012.84;;;15.03;57.89
29371;BME280;16357;52.188;7.838;2023-05-07T04:43:29;101016.56;;;15.02;58.01
29371;BME280;16357;52.188;7.838;2023-05-07T04:45:55;101012.00;;;15.03;57.89
29371;BME280;16357;52.188;7.838;2023-05-07T04:48:22;101020.31;;;15.01;57.91
29371;BME280;16357;52.188;7.838;2023-05-07T04:50:49;101022.34;;;14.99;58.12
29371;BME280;16357;52.188;7.838;2023-05-07T04:53:17;101020.47;;;15.00;57.70
29371;BME280;16357;52.188;7.838;2023-05-07T04:55:44;101016.94;;;14.99;58.28
29371;BME280;16357;52.188;7.838;2023-05-07T04:58:11;101019.44;;;15.01;58.22
29371;BME280;16357;52.188;7.838;2023-05-07T05:00:38;101021.13;;;15.02;58.19
29371;BME280;16357;52.188;7.838;2023-05-07T05:03:08;101027.00;;;15.05;58.14
29371;BME280;16357;52.188;7.838;2023-05-07T05:05:35;101022.28;;;15.07;58.05
29371;BME280;16357;52.188;7.838;2023-05-07T05:08:01;101021.91;;;15.10;58.16
29371;BME280;16357;52.188;7.838;2023-05-07T05:10:27;101032.19;;;15.15;58.11
29371;BME280;16357;52.188;7.838;2023-05-07T05:12:54;101033.50;;;15.19;58.19
29371;BME280;16357;52.188;7.838;2023-05-07T05:15:21;101034.84;;;15.23;58.16
29371;BME280;16357;52.188;7.838;2023-05-07T05:17:47;101033.47;;;15.27;57.92
29371;BME280;16357;52.188;7.838;2023-05-07T05:20:14;101038.16;;;15.33;57.81
29371;BME280;16357;52.188;7.838;2023-05-07T05:22:41;101037.78;;;15.36;57.74
29371;BME280;16357;52.188;7.838;2023-05-07T05:25:08;101042.66;;;15.41;57.44
29371;BME280;16357;52.188;7.838;2023-05-07T05:27:35;101037.72;;;15.45;57.61
29371;BME280;16357;52.188;7.838;2023-05-07T05:30:03;101042.75;;;15.48;57.45
29371;BME280;16357;52.188;7.838;2023-05-07T05:32:29;101049.50;;;15.52;57.18
29371;BME280;16357;52.188;7.838;2023-05-07T05:34:55;101043.72;;;15.55;57.25
29371;BME280;16357;52.188;7.838;2023-05-07T05:37:22;101042.50;;;15.57;57.18
29371;BME280;16357;52.188;7.838;2023-05-07T05:39:49;101041.31;;;15.60;57.47
29371;BME280;16357;52.188;7.838;2023-05-07T05:42:15;101044.69;;;15.62;57.07
29371;BME280;16357;52.188;7.838;2023-05-07T05:44:41;101050.75;;;15.64;56.90
29371;BME280;16357;52.188;7.838;2023-05-07T05:47:08;101047.84;;;15.66;57.08
29371;BME280;16357;52.188;7.838;2023-05-07T05:49:34;101053.09;;;15.67;56.87
29371;BME280;16357;52.188;7.838;2023-05-07T05:52:01;101059.00;;;15.71;56.87
29371;BME280;16357;52.188;7.838;2023-05-07T05:54:27;101054.06;;;15.74;56.99
29371;BME280;16357;52.188;7.838;2023-05-07T05:56:54;101051.84;;;15.78;56.92
29371;BME280;16357;52.188;7.838;2023-05-07T05:59:21;101050.44;;;15.82;56.88
29371;BME280;16357;52.188;7.838;2023-05-07T06:01:47;101049.72;;;15.88;57.12
29371;BME280;16357;52.188;7.838;2023-05-07T06:04:14;101055.59;;;15.92;57.12
29371;BME280;16357;52.188;7.838;2023-05-07T06:06:40;101054.84;;;15.98;57.23
29371;BME280;16357;52.188;7.838;2023-05-07T06:09:06;101057.84;;;16.03;56.82
29371;BME280;16357;52.188;7.838;2023-05-07T06:11:33;101059.84;;;16.09;56.68
29371;BME280;16357;52.188;7.838;2023-05-07T06:13:59;101053.66;;;16.15;56.59
29371;BME280;16357;52.188;7.838;2023-05-07T06:16:26;101065.44;;;16.22;56.83
29371;BME280;16357;52.188;7.838;2023-05-07T06:18:52;101071.78;;;16.30;56.49
29371;BME280;16357;52.188;7.838;2023-05-07T06:21:19;101083.56;;;16.37;56.30
29371;BME280;16357;52.188;7.838;2023-05-07T06:23:45;101082.84;;;16.43;55.96
29371;BME280;16357;52.188;7.838;2023-05-07T06:26:12;101083.09;;;16.48;55.97
29371;BME280;16357;52.188;7.838;2023-05-07T06:28:38;101075.44;;;16.52;56.08
29371;BME280;16357;52.188;7.838;2023-05-07T06:31:14;101087.41;;;16.57;55.45
29371;BME280;16357;52.188;7.838;2023-05-07T06:33:44;101087.84;;;16.61;55.59
29371;BME280;16357;52.188;7.838;2023-05-07T06:36:10;101078.50;;;16.63;55.49
29371;BME280;16357;52.188;7.838;2023-05-07T06:38:36;101080.84;;;16.66;55.44
29371;BME280;16357;52.188;7.838;2023-05-07T06:41:03;101078.41;;;16.72;55.26
29371;BME280;16357;52.188;7.838;2023-05-07T06:43:29;101083.47;;;16.75;55.33
29371;BME280;16357;52.188;7.838;2023-05-07T06:45:56;101087.50;;;16.79;55.47
29371;BME280;16357;52.188;7.838;2023-05-07T06:48:22;101092.34;;;16.83;55.64
29371;BME280;16357;52.188;7.838;2023-05-07T06:50:49;101091.41;;;16.91;55.31
29371;BME280;16357;52.188;7.838;2023-05-07T06:53:15;101092.53;;;16.97;55.35
29371;BME280;16357;52.188;7.838;2023-05-07T06:55:42;101095.97;;;17.05;55.29
29371;BME280;16357;52.188;7.838;2023-05-07T06:58:08;101094.81;;;17.15;55.08
29371;BME280;16357;52.188;7.838;2023-05-07T07:00:34;101098.25;;;17.23;55.02
29371;BME280;16357;52.188;7.838;2023-05-07T07:03:01;101100.84;;;17.31;54.94
29371;BME280;16357;52.188;7.838;2023-05-07T07:05:27;101098.00;;;17.40;54.62
29371;BME280;16357;52.188;7.838;2023-05-07T07:07:54;101100.41;;;17.49;54.35
29371;BME280;16357;52.188;7.838;2023-05-07T07:10:21;101106.38;;;17.60;54.53
29371;BME280;16357;52.188;7.838;2023-05-07T07:12:49;101103.34;;;17.69;53.90
29371;BME280;16357;52.188;7.838;2023-05-07T07:15:16;101112.84;;;17.80;54.05
29371;BME280;16357;52.188;7.838;2023-05-07T07:17:42;101101.84;;;17.88;54.11
29371;BME280;16357;52.188;7.838;2023-05-07T07:20:10;101117.59;;;17.99;53.55
29371;BME280;16357;52.188;7.838;2023-05-07T07:22:37;101110.16;;;18.08;53.65
29371;BME280;16357;52.188;7.838;2023-05-07T07:25:04;101110.88;;;18.17;53.40
29371;BME280;16357;52.188;7.838;2023-05-07T07:27:30;101116.75;;;18.27;52.66
29371;BME280;16357;52.188;7.838;2023-05-07T07:29:57;101112.69;;;18.38;53.25
29371;BME280;16357;52.188;7.838;2023-05-07T07:32:23;101109.81;;;18.46;52.94
29371;BME280;16357;52.188;7.838;2023-05-07T07:34:50;101112.78;;;18.58;52.36
29371;BME280;16357;52.188;7.838;2023-05-07T07:37:16;101110.13;;;18.64;52.14
29371;BME280;16357;52.188;7.838;2023-05-07T07:39:43;101105.75;;;18.70;51.59
29371;BME280;16357;52.188;7.838;2023-05-07T07:42:09;101104.16;;;18.76;51.68
29371;BME280;16357;52.188;7.838;2023-05-07T07:44:36;101097.25;;;18.80;51.47
29371;BME280;16357;52.188;7.838;2023-05-07T07:47:02;101095.00;;;18.83;51.41
29371;BME280;16357;52.188;7.838;2023-05-07T07:49:29;101094.38;;;18.88;51.19
29371;BME280;16357;52.188;7.838;2023-05-07T07:51:55;101099.41;;;18.91;50.90
29371;BME280;16357;52.188;7.838;2023-05-07T07:54:25;101104.25;;;18.96;51.10
29371;BME280;16357;52.188;7.838;2023-05-07T07:56:52;101104.88;;;18.98;50.79
29371;BME280;16357;52.188;7.838;2023-05-07T07:59:18;101106.97;;;19.02;50.94
29371;BME280;16357;52.188;7.838;2023-05-07T08:01:45;101101.97;;;19.06;50.84
29371;BME280;16357;52.188;7.838;2023-05-07T08:04:11;101102.59;;;19.08;50.39
29371;BME280;16357;52.188;7.838;2023-05-07T08:06:38;101105.78;;;19.12;50.87
29371;BME280;16357;52.188;7.838;2023-05-07T08:09:04;101109.75;;;19.16;50.76
29371;BME280;16357;52.188;7.838;2023-05-07T08:11:31;101107.25;;;19.21;50.76
29371;BME280;16357;52.188;7.838;2023-05-07T08:13:57;101108.97;;;19.28;50.56
29371;BME280;16357;52.188;7.838;2023-05-07T08:16:24;101112.53;;;19.36;50.31
29371;BME280;16357;52.188;7.838;2023-05-07T08:18:51;101104.19;;;19.44;50.37
29371;BME280;16357;52.188;7.838;2023-05-07T08:21:17;101094.78;;;19.53;50.08
29371;BME280;16357;52.188;7.838;2023-05-07T08:23:44;101098.16;;;19.62;49.71
29371;BME280;16357;52.188;7.838;2023-05-07T08:26:11;101099.84;;;19.69;49.67
29371;BME280;16357;52.188;7.838;2023-05-07T08:28:37;101103.22;;;19.78;49.69
29371;BME280;16357;52.188;7.838;2023-05-07T08:31:03;101108.66;;;19.85;49.24
29371;BME280;16357;52.188;7.838;2023-05-07T08:33:30;101104.06;;;19.92;48.92
29371;BME280;16357;52.188;7.838;2023-05-07T08:35:57;101110.78;;;19.96;48.76
29371;BME280;16357;52.188;7.838;2023-05-07T08:38:23;101101.13;;;20.00;48.90
29371;BME280;16357;52.188;7.838;2023-05-07T08:40:50;101108.44;;;20.06;48.92
29371;BME280;16357;52.188;7.838;2023-05-07T08:43:16;101109.53;;;20.12;48.97
29371;BME280;16357;52.188;7.838;2023-05-07T08:45:45;101108.47;;;20.20;48.68
29371;BME280;16357;52.188;7.838;2023-05-07T08:48:16;101107.19;;;20.29;48.87
29371;BME280;16357;52.188;7.838;2023-05-07T08:50:43;101111.56;;;20.36;48.67
29371;BME280;16357;52.188;7.838;2023-05-07T08:53:09;101109.44;;;20.45;48.69
29371;BME280;16357;52.188;7.838;2023-05-07T08:55:36;101109.06;;;20.55;48.51
29371;BME280;16357;52.188;7.838;2023-05-07T08:58:03;101109.88;;;20.62;48.08
29371;BME280;16357;52.188;7.838;2023-05-07T09:00:30;101114.47;;;20.68;48.04
29371;BME280;16357;52.188;7.838;2023-05-07T09:02:56;101114.88;;;20.72;47.63
29371;BME280;16357;52.188;7.838;2023-05-07T09:05:23;101116.97;;;20.76;47.87
29371;BME280;16357;52.188;7.838;2023-05-07T09:07:49;101117.16;;;20.81;47.57
29371;BME280;16357;52.188;7.838;2023-05-07T09:10:20;101123.63;;;20.87;47.64
29371;BME280;16357;52.188;7.838;2023-05-07T09:12:47;101124.47;;;20.94;47.55
29371;BME280;16357;52.188;7.838;2023-05-07T09:15:14;101113.50;;;21.01;47.29
29371;BME280;16357;52.188;7.838;2023-05-07T09:17:40;101122.31;;;21.10;47.35
29371;BME280;16357;52.188;7.838;2023-05-07T09:20:08;101117.22;;;21.20;47.06
29371;BME280;16357;52.188;7.838;2023-05-07T09:22:37;101118.63;;;21.29;46.67
29371;BME280;16357;52.188;7.838;2023-05-07T09:25:05;101107.69;;;21.36;46.79
29371;BME280;16357;52.188;7.838;2023-05-07T09:27:32;101107.66;;;21.42;46.36
29371;BME280;16357;52.188;7.838;2023-05-07T09:29:58;101115.00;;;21.48;46.42
29371;BME280;16357;52.188;7.838;2023-05-07T09:32:25;101109.47;;;21.55;46.32
29371;BME280;16357;52.188;7.838;2023-05-07T09:34:53;101109.66;;;21.60;45.85
29371;BME280;16357;52.188;7.838;2023-05-07T09:37:20;101106.91;;;21.67;45.80
29371;BME280;16357;52.188;7.838;2023-05-07T09:39:48;101103.28;;;21.73;45.91
29371;BME280;16357;52.188;7.838;2023-05-07T09:42:15;101108.06;;;21.78;45.59
29371;BME280;16357;52.188;7.838;2023-05-07T09:44:45;101108.47;;;21.81;45.57
29371;BME280;16357;52.188;7.838;2023-05-07T09:47:18;101107.19;;;21.84;45.10
29371;BME280;16357;52.188;7.838;2023-05-07T09:49:47;101102.53;;;21.84;45.61
29371;BME280;16357;52.188;7.838;2023-05-07T09:52:14;101105.91;;;21.86;45.59
29371;BME280;16357;52.188;7.838;2023-05-07T09:54:43;101108.34;;;21.95;45.60
29371;BME280;16357;52.188;7.838;2023-05-07T09:57:11;101103.06;;;22.00;45.26
29371;BME280;16357;52.188;7.838;2023-05-07T09:59:43;101115.38;;;22.09;45.13
29371;BME280;16357;52.188;7.838;2023-05-07T10:02:11;101111.75;;;22.15;45.05
29371;BME280;16357;52.188;7.838;2023-05-07T10:04:39;101108.97;;;22.22;45.14
29371;BME280;16357;52.188;7.838;2023-05-07T10:07:07;101112.28;;;22.30;44.70
29371;BME280;16357;52.188;7.838;2023-05-07T10:09:34;101107.56;;;22.38;44.82
29371;BME280;16357;52.188;7.838;2023-05-07T10:12:05;101108.13;;;22.46;44.41
29371;BME280;16357;52.188;7.838;2023-05-07T10:14:32;101107.00;;;22.54;44.45
29371;BME280;16357;52.188;7.838;2023-05-07T10:17:00;101102.88;;;22.63;44.20
29371;BME280;16357;52.188;7.838;2023-05-07T10:19:28;101100.09;;;22.70;43.77
29371;BME280;16357;52.188;7.838;2023-05-07T10:22:01;101106.28;;;22.77;43.74
29371;BME280;16357;52.188;7.838;2023-05-07T10:24:32;101107.88;;;22.85;43.64
29371;BME280;16357;52.188;7.838;2023-05-07T10:27:01;101117.31;;;22.89;43.56
29371;BME280;16357;52.188;7.838;2023-05-07T10:32:37;101116.72;;;23.05;43.59
29371;BME280;16357;52.188;7.838;2023-05-07T10:35:10;101108.06;;;23.08;43.39
29371;BME280;16357;52.188;7.838;2023-05-07T10:37:38;101109.75;;;23.09;43.41
29371;BME280;16357;52.188;7.838;2023-05-07T10:40:06;101109.50;;;23.11;42.91
29371;BME280;16357;52.188;7.838;2023-05-07T10:42:33;101109.84;;;23.14;43.05
29371;BME280;16357;52.188;7.838;2023-05-07T10:45:15;101111.69;;;23.20;43.04
29371;BME280;16357;52.188;7.838;2023-05-07T10:48:09;101110.41;;;23.23;43.03
29371;BME280;16357;52.188;7.838;2023-05-07T10:51:18;101110.16;;;23.25;43.18
29371;BME280;16357;52.188;7.838;2023-05-07T10:53:46;101110.84;;;23.20;42.37
29371;BME280;16357;52.188;7.838;2023-05-07T10:58:46;101108.38;;;23.00;42.13
29371;BME280;16357;52.188;7.838;2023-05-07T11:01:13;101106.38;;;22.89;42.51
29371;BME280;16357;52.188;7.838;2023-05-07T11:04:20;101118.94;;;22.78;43.43
29371;BME280;16357;52.188;7.838;2023-05-07T11:15:08;101103.56;;;22.77;43.62
29371;BME280;16357;52.188;7.838;2023-05-07T11:17:52;101108.56;;;22.80;43.68
29371;BME280;16357;52.188;7.838;2023-05-07T11:20:19;101105.63;;;22.82;42.75
29371;BME280;16357;52.188;7.838;2023-05-07T11:22:47;101109.19;;;22.82;43.03
29371;BME280;16357;52.188;7.838;2023-05-07T11:25:17;101110.88;;;22.83;43.14
29371;BME280;16357;52.188;7.838;2023-05-07T11:27:45;101104.53;;;22.83;42.95
29371;BME280;16357;52.188;7.838;2023-05-07T11:30:21;101105.78;;;22.87;43.66
29371;BME280;16357;52.188;7.838;2023-05-07T11:32:48;101114.75;;;22.94;43.88
29371;BME280;16357;52.188;7.838;2023-05-07T11:35:15;101112.41;;;22.97;43.02
29371;BME280;16357;52.188;7.838;2023-05-07T11:37:42;101101.81;;;23.01;42.93
29371;BME280;16357;52.188;7.838;2023-05-07T11:40:11;101104.69;;;23.06;43.01
29371;BME280;16357;52.188;7.838;2023-05-07T11:42:40;101102.97;;;23.12;43.11
29371;BME280;16357;52.188;7.838;2023-05-07T11:45:10;101100.75;;;23.20;43.00
29371;BME280;16357;52.188;7.838;2023-05-07T11:47:37;101092.19;;;23.29;42.99
29371;BME280;16357;52.188;7.838;2023-05-07T11:50:05;101091.41;;;23.40;42.81
29371;BME280;16357;52.188;7.838;2023-05-07T11:52:34;101103.72;;;23.49;42.94
29371;BME280;16357;52.188;7.838;2023-05-07T11:55:02;101100.38;;;23.59;42.99
29371;BME280;16357;52.188;7.838;2023-05-07T11:57:29;101097.69;;;23.71;42.42
29371;BME280;16357;52.188;7.838;2023-05-07T11:59:57;101090.38;;;23.83;42.35
29371;BME280;16357;52.188;7.838;2023-05-07T12:02:25;101093.34;;;23.93;41.60
29371;BME280;16357;52.188;7.838;2023-05-07T12:04:52;101087.75;;;24.00;41.81
29371;BME280;16357;52.188;7.838;2023-05-07T12:07:19;101084.31;;;24.04;41.19
29371;BME280;16357;52.188;7.838;2023-05-07T12:09:46;101081.31;;;24.06;40.96
29371;BME280;16357;52.188;7.838;2023-05-07T12:12:17;101078.34;;;24.07;41.25
29371;BME280;16357;52.188;7.838;2023-05-07T12:14:52;101082.75;;;24.08;40.88
29371;BME280;16357;52.188;7.838;2023-05-07T12:17:19;101077.50;;;24.07;41.08
29371;BME280;16357;52.188;7.838;2023-05-07T12:19:55;101081.31;;;24.06;41.21
29371;BME280;16357;52.188;7.838;2023-05-07T12:22:22;101089.41;;;24.01;41.16
29371;BME280;16357;52.188;7.838;2023-05-07T12:24:56;101094.31;;;23.99;41.13
29371;BME280;16357;52.188;7.838;2023-05-07T12:27:22;101096.47;;;23.97;41.06
29371;BME280;16357;52.188;7.838;2023-05-07T12:29:50;101092.03;;;23.96;41.17
29371;BME280;16357;52.188;7.838;2023-05-07T12:32:20;101091.19;;;23.95;41.39
29371;BME280;16357;52.188;7.838;2023-05-07T12:34:50;101087.63;;;23.95;41.56
29371;BME280;16357;52.188;7.838;2023-05-07T12:37:25;101092.03;;;23.96;41.50
29371;BME280;16357;52.188;7.838;2023-05-07T12:40:06;101094.53;;;23.97;41.11
29371;BME280;16357;52.188;7.838;2023-05-07T12:42:38;101101.94;;;23.97;41.08
29371;BME280;16357;52.188;7.838;2023-05-07T12:45:11;101101.94;;;23.97;41.18
29371;BME280;16357;52.188;7.838;2023-05-07T12:47:46;101106.13;;;23.99;40.80
29371;BME280;16357;52.188;7.838;2023-05-07T12:50:14;101100.03;;;23.97;40.88
29371;BME280;16357;52.188;7.838;2023-05-07T12:52:43;101103.59;;;23.98;40.95
29371;BME280;16357;52.188;7.838;2023-05-07T12:55:13;101109.56;;;23.95;40.22
29371;BME280;16357;52.188;7.838;2023-05-07T12:57:47;101096.31;;;23.92;40.83
29371;BME280;16357;52.188;7.838;2023-05-07T13:00:15;101098.13;;;23.86;40.96
29371;BME280;16357;52.188;7.838;2023-05-07T13:02:43;101104.06;;;23.83;40.86
29371;BME280;16357;52.188;7.838;2023-05-07T13:05:12;101100.72;;;23.81;41.35
29371;BME280;16357;52.188;7.838;2023-05-07T13:07:39;101101.56;;;23.81;41.37